AirNav   ProFlight Series 2 Aviation Headset
 
 1073 users online  

00R Livingston Municipal Airport
Livingston, Texas, USA

GOING TO LIVINGSTON?


FAA INFORMATION EFFECTIVE 16 JULY 2020

Location

FAA Identifier: 00R
Lat/Long: 30-41-09.1000N 095-01-04.5000W
30-41.151667N 095-01.075000W
30.6858611,-95.0179167
(estimated)
Elevation: 150.7 ft. / 45.9 m (surveyed)
Variation: 06E (1985)
From city: 5 miles SW of LIVINGSTON, TX
Time zone: UTC -5 (UTC -6 during Standard Time)
Zip code: 77351

Airport Operations

Airport use: Open to the public
Activation date: 10/1969
Control tower: no
ARTCC: HOUSTON CENTER
FSS: MONTGOMERY COUNTY FLIGHT SERVICE STATION
NOTAMs facility: CXO (NOTAM-D service available)
Attendance: MON-FRI 0800-1700, ALL SAT-SUN 1200-1700
Wind indicator: lighted
Segmented circle: yes
Lights: SS-SR
Beacon: white-green (lighted land airport)
Operates sunset to sunrise.

Airport Communications

CTAF/UNICOM: 122.7
WX AWOS-3 at 6R3 (20 nm S): 119.325 (281-593-1754)
  • APCH/DEP SVC PRVDD BY HOUSTON ARTCC ON FREQS 125.175/285.575 (LUFKIN RCAG).

Nearby radio navigation aids

VOR radial/distance  VOR name  Freq  Var
LFKr203/32.5LUFKIN VORTAC112.1005E
DASr322/35.5DAISETTA VORTAC116.9005E

 
NDB name  Hdg/Dist  Freq  Var  ID
HUNTSVILLE090/29.730806EUTS ..- - ...

Airport Services

Fuel available: 100LL
Parking: hangars and tiedowns
Airframe service: MAJOR
Powerplant service: MAJOR
Bottled oxygen: NONE
Bulk oxygen: NONE

Runway Information

Runway 12/30

Dimensions: 3704 x 60 ft. / 1129 x 18 m
Surface: asphalt, in good condition
Weight bearing capacity: 
Single wheel: 11.0
Runway edge lights: medium intensity
RUNWAY 12  RUNWAY 30
Latitude: 30-41.349980N30-40.952607N
Longitude: 095-01.344160W095-00.807090W
Elevation: 150.2 ft.150.4 ft.
Traffic pattern: leftleft
Runway heading: 125 magnetic, 131 true305 magnetic, 311 true
Markings: nonprecision, in fair conditionnonprecision, in fair condition
Touchdown point: yes, no lightsyes, no lights
Obstructions: 50 ft. trees, 1200 ft. from runway, 20:1 slope to clear85 ft. trees, 1200 ft. from runway, 12:1 slope to clear

Airport Ownership and Management from official FAA records

Ownership: Publicly-owned
Owner: CITY OF LIVINGSTON
200 WEST CHURCH
LIVINGSTON, TX 77351
Phone 936-327-4311
Manager: BILLY S. WIGGINS
200 WEST CHURCH
LIVINGSTON, TX 77351
Phone 936-327-4311

Airport Operational Statistics

Aircraft based on the field: 13
Single engine airplanes: 13
    
Aircraft operations: avg 25/day *
75% local general aviation
25% transient general aviation
* for 12-month period ending 25 March 2019

Additional Remarks

FOR CD CTC HOUSTON ARTCC AT 281-230-5622.

Instrument Procedures

NOTE: All procedures below are presented as PDF files. If you need a reader for these files, you should download the free Adobe Reader.

NOT FOR NAVIGATION. Please procure official charts for flight.
FAA instrument procedures published for use from 16 July 2020 at 0901Z to 13 August 2020 at 0900Z.

 
IAPs - Instrument Approach Procedures
RNAV (GPS) RWY 30 **CHANGED**   download (194KB)
NOTE: Special Take-Off Minimums/Departure Procedures apply   download (70KB)

Other nearby airports with instrument procedures:

6R3 - Cleveland Municipal Airport (20 nm S)
KCXO - Conroe-North Houston Regional Airport (29 nm SW)
KUTS - Huntsville Municipal Airport (30 nm W)
KLFK - Angelina County Airport (36 nm NE)
T78 - Liberty Municipal Airport (40 nm SE)
 
Loc | Ops | Rwys | IFR | FBO | Links
Com | Nav | Svcs | Stats | Notes
Area around 00R (Livingston Municipal Airport)
 
Road maps at: MapQuest Bing Google
 
Aerial photo
WARNING: Photo may not be current or correct
Aerial photo of 00R (Livingston Municipal Airport)
Photo taken 08-Jul-2018
looking southeast.

Do you have a better or more recent aerial photo of Livingston Municipal Airport that you would like to share? If so, please send us your photo.

 
Sectional chart

 
Airport distance calculator
Flying to Livingston Municipal Airport? Find the distance to fly.

From to 00R

Sunrise and sunset
Times for 11-Aug-2020
 Local
(UTC-5)
 Zulu
(UTC)
Morning civil twilight06:2011:20
Sunrise06:4611:46
Sunset20:0501:05
Evening civil twilight20:3001:30

Current date and time
Zulu (UTC)  11-Aug-2020 12:51:58
Local (UTC-5)  11-Aug-2020 07:51:58
 
METAR
K6R3 
20nm S 
111235Z AUTO 00000KT 5SM BR CLR 24/24 A3003 RMK AO2 T02350235
KCXO 
29nm SW 
111153Z 00000KT 6SM BR CLR 23/23 A3003 RMK AO2 SLP164 T02330228 10267 20233 53008
KUTS 
29nm W 
111153Z AUTO 00000KT 10SM FEW019 26/23 A3003 RMK AO2 SLP163 T02610233 10278 20256 53010
KLFK 
36nm NE 
111153Z AUTO 00000KT 10SM CLR 24/23 A3002 RMK AO2 SLP161 T02390228 10267 20239 53005
TAF
KCXO 
29nm SW 
111134Z 1112/1212 00000KT P6SM FEW035 SCT045 FM111600 19009KT P6SM SCT050 FM120200 16005KT P6SM SKC
KUTS 
29nm W 
111134Z 1112/1212 VRB03KT P6SM FEW015 SCT030 FM111600 18008KT P6SM SCT050 FM120200 17006KT P6SM FEW250
KLFK 
36nm NE 
111141Z 1112/1212 00000KT P6SM SKC TEMPO 1113/1115 BKN015 FM111500 21006KT P6SM SCT025 FM111700 19006KT P6SM SCT040 FM120300 16006KT P6SM SKC
NOTAMs
Click for the latest NOTAMs
NOTAMs are issued by the DoD/FAA and will open in a separate window not controlled by AirNav.

 

 
 

Would you like to see your business listed on this page?

 If your business provides an interesting product or service to pilots, flight crews, aircraft, or users of the Livingston Municipal Airport, you should consider listing it here.  To start the listing process, click on the button below
 
Add a business
 

Other Pages about Livingston Municipal Airport

Update a link
 
Copyright © AirNav, LLC. All rights reserved. Privacy Policy  Contact